Time;durP1;ratioP1;P1;durP2;ratioP2;P2;SDS_P1;SDS_P2;PMS_P1;PMS_P2;Temp;Humidity;BMP_temperature;BMP_pressure;BME280_temperature;BME280_humidity;BME280_pressure;Samples;Min_cycle;Max_cycle;Signal;HPM_P1;HPM_P2
2023/07/19 00:00:20;;;;;;;3.00;2.17;;;;;;;;;;5016435;28;20196;-67
2023/07/19 00:02:47;;;;;;;2.22;1.92;;;;;;;;;;5021924;28;20201;-67
2023/07/19 00:05:14;;;;;;;2.22;2.00;;;;;;;;;;5020889;28;20200;-67
2023/07/19 00:07:41;;;;;;;2.15;1.90;;;;;;;;;;5013795;28;20204;-67
2023/07/19 00:10:09;;;;;;;2.83;2.13;;;;;;;;;;5017807;28;20208;-67
2023/07/19 00:12:37;;;;;;;3.70;2.05;;;;;;;;;;5016015;28;20220;-67
2023/07/19 00:15:05;;;;;;;4.07;2.55;;;;;;;;;;5022287;28;20246;-67
2023/07/19 00:17:32;;;;;;;4.63;2.20;;;;;;;;;;5019816;28;20315;-67
2023/07/19 00:19:59;;;;;;;2.50;2.10;;;;;;;;;;5019459;28;20217;-67
2023/07/19 00:22:26;;;;;;;4.07;2.03;;;;;;;;;;5023009;28;20201;-67
2023/07/19 00:24:54;;;;;;;3.88;2.05;;;;;;;;;;5017467;28;20208;-68
2023/07/19 00:27:21;;;;;;;4.22;1.95;;;;;;;;;;5024448;28;20211;-67
2023/07/19 00:29:49;;;;;;;4.10;2.05;;;;;;;;;;5024186;28;20197;-67
2023/07/19 00:32:17;;;;;;;3.63;2.10;;;;;;;;;;5021043;28;20208;-67
2023/07/19 00:34:44;;;;;;;2.00;1.90;;;;;;;;;;5021443;28;20205;-67
2023/07/19 00:37:11;;;;;;;2.63;2.08;;;;;;;;;;5020972;28;20215;-67
2023/07/19 00:39:38;;;;;;;3.58;2.10;;;;;;;;;;5019889;28;20205;-67
2023/07/19 00:42:06;;;;;;;2.33;1.90;;;;;;;;;;5026379;28;20215;-67
2023/07/19 00:44:33;;;;;;;2.55;2.30;;;;;;;;;;5022273;28;20200;-67
2023/07/19 00:47:02;;;;;;;2.30;2.03;;;;;;;;;;5021212;28;20236;-67
2023/07/19 00:49:30;;;;;;;3.15;2.30;;;;;;;;;;5024135;28;20208;-66
2023/07/19 00:51:58;;;;;;;8.02;2.53;;;;;;;;;;5017514;28;20299;-67
2023/07/19 00:54:25;;;;;;;3.65;2.25;;;;;;;;;;5021220;28;20204;-67
2023/07/19 00:56:52;;;;;;;4.70;2.25;;;;;;;;;;5017867;28;20212;-67
2023/07/19 00:59:20;;;;;;;2.42;1.85;;;;;;;;;;5026502;28;20227;-67
2023/07/19 01:01:48;;;;;;;2.20;2.00;;;;;;;;;;5017846;28;20207;-66
2023/07/19 01:04:16;;;;;;;3.65;2.70;;;;;;;;;;5021361;28;20299;-66
2023/07/19 01:06:43;;;;;;;2.92;2.20;;;;;;;;;;5025383;28;20201;-66
2023/07/19 01:09:11;;;;;;;4.28;2.03;;;;;;;;;;5024426;28;20200;-67
2023/07/19 01:11:38;;;;;;;3.45;2.35;;;;;;;;;;5020399;28;20312;-66
2023/07/19 01:14:06;;;;;;;3.53;2.30;;;;;;;;;;5015257;28;20292;-66
2023/07/19 01:16:33;;;;;;;5.07;2.40;;;;;;;;;;5024471;28;20249;-66
2023/07/19 01:19:00;;;;;;;4.78;2.28;;;;;;;;;;5021527;28;20227;-66
2023/07/19 01:21:29;;;;;;;2.60;2.30;;;;;;;;;;5020464;28;20204;-66
2023/07/19 01:23:58;;;;;;;3.20;2.00;;;;;;;;;;5021881;28;20213;-66
2023/07/19 01:26:25;;;;;;;7.10;2.40;;;;;;;;;;5020918;28;20215;-66
2023/07/19 01:28:52;;;;;;;3.58;1.80;;;;;;;;;;5022096;28;20208;-66
2023/07/19 01:31:19;;;;;;;4.18;2.33;;;;;;;;;;5021385;28;20215;-66
2023/07/19 01:33:46;;;;;;;2.97;2.10;;;;;;;;;;5021080;28;20204;-66
2023/07/19 01:36:14;;;;;;;2.30;2.00;;;;;;;;;;5019329;28;20205;-66
2023/07/19 01:38:42;;;;;;;3.13;2.20;;;;;;;;;;5025396;28;20225;-67
2023/07/19 01:41:10;;;;;;;5.05;2.85;;;;;;;;;;5025575;28;20204;-66
2023/07/19 01:43:37;;;;;;;3.88;2.17;;;;;;;;;;5023772;28;20208;-67
2023/07/19 01:46:05;;;;;;;3.10;2.30;;;;;;;;;;5016829;28;20217;-69
2023/07/19 01:48:32;;;;;;;2.40;2.20;;;;;;;;;;5024581;28;20208;-68
2023/07/19 01:50:59;;;;;;;2.88;2.10;;;;;;;;;;5026026;28;20200;-67
2023/07/19 01:53:26;;;;;;;2.70;2.50;;;;;;;;;;5024432;28;20204;-66
2023/07/19 01:55:54;;;;;;;2.60;1.98;;;;;;;;;;5019847;28;20226;-66
2023/07/19 01:58:22;;;;;;;2.88;2.00;;;;;;;;;;5023838;28;20228;-66
2023/07/19 02:00:49;;;;;;;2.97;2.13;;;;;;;;;;5021391;28;20204;-66
2023/07/19 02:03:18;;;;;;;3.88;2.05;;;;;;;;;;5022596;28;20291;-66
2023/07/19 02:05:45;;;;;;;2.97;2.38;;;;;;;;;;5021051;28;20208;-66
2023/07/19 02:08:12;;;;;;;3.63;2.45;;;;;;;;;;5025538;28;20211;-66
2023/07/19 02:10:39;;;;;;;2.35;2.00;;;;;;;;;;5016540;28;20200;-67
2023/07/19 02:13:06;;;;;;;2.17;1.98;;;;;;;;;;5022824;28;20200;-67
2023/07/19 02:15:35;;;;;;;3.20;2.17;;;;;;;;;;5018383;28;20236;-67
2023/07/19 02:18:02;;;;;;;3.33;2.10;;;;;;;;;;5019893;28;20231;-67
2023/07/19 02:20:29;;;;;;;3.97;2.10;;;;;;;;;;5018254;28;20255;-67
2023/07/19 02:22:57;;;;;;;5.35;2.63;;;;;;;;;;5019698;28;20204;-67
2023/07/19 02:25:24;;;;;;;3.50;2.28;;;;;;;;;;5024440;28;20204;-67
2023/07/19 02:27:51;;;;;;;5.03;2.17;;;;;;;;;;5015957;28;20204;-67
2023/07/19 02:30:18;;;;;;;3.63;2.13;;;;;;;;;;5020609;28;20214;-67
2023/07/19 02:32:47;;;;;;;3.20;2.45;;;;;;;;;;5016930;28;20215;-67
2023/07/19 02:35:14;;;;;;;2.85;2.05;;;;;;;;;;5026226;28;20210;-67
2023/07/19 02:37:41;;;;;;;4.07;2.35;;;;;;;;;;5018684;28;20212;-67
2023/07/19 02:40:09;;;;;;;3.45;2.65;;;;;;;;;;5019936;28;20208;-67
2023/07/19 02:42:36;;;;;;;2.63;2.38;;;;;;;;;;5020354;28;20220;-67
2023/07/19 02:45:04;;;;;;;3.92;2.38;;;;;;;;;;5019084;28;20216;-66
2023/07/19 02:47:32;;;;;;;3.55;2.30;;;;;;;;;;5024744;28;20211;-66
2023/07/19 02:50:00;;;;;;;3.22;2.50;;;;;;;;;;5016477;28;20239;-67
2023/07/19 02:52:27;;;;;;;3.40;2.42;;;;;;;;;;5022374;28;20201;-67
2023/07/19 02:54:55;;;;;;;4.22;2.55;;;;;;;;;;5014664;28;20219;-67
2023/07/19 02:57:22;;;;;;;4.00;2.40;;;;;;;;;;5020599;28;20200;-67
2023/07/19 02:59:49;;;;;;;5.93;2.28;;;;;;;;;;5020972;28;20246;-67
2023/07/19 03:02:16;;;;;;;4.03;2.22;;;;;;;;;;5020111;28;20204;-67
2023/07/19 03:04:43;;;;;;;3.67;2.20;;;;;;;;;;5023877;28;20196;-67
2023/07/19 03:07:12;;;;;;;2.60;2.40;;;;;;;;;;5017271;28;20259;-67
2023/07/19 03:09:39;;;;;;;2.55;2.20;;;;;;;;;;5016259;28;20207;-66
2023/07/19 03:12:06;;;;;;;3.03;2.50;;;;;;;;;;5022266;28;20209;-67
2023/07/19 03:14:34;;;;;;;3.80;2.15;;;;;;;;;;5020003;28;20263;-67
2023/07/19 03:17:01;;;;;;;3.22;2.70;;;;;;;;;;5018015;28;20204;-68
2023/07/19 03:19:29;;;;;;;2.30;2.10;;;;;;;;;;5018642;28;20289;-67
2023/07/19 03:21:56;;;;;;;3.90;2.20;;;;;;;;;;5024229;28;20204;-68
2023/07/19 03:24:25;;;;;;;3.83;2.25;;;;;;;;;;5018683;28;20205;-67
2023/07/19 03:26:52;;;;;;;2.50;2.30;;;;;;;;;;5020643;28;20227;-67
2023/07/19 03:29:19;;;;;;;2.90;2.10;;;;;;;;;;5016184;28;20196;-67
2023/07/19 03:31:46;;;;;;;2.67;2.30;;;;;;;;;;5024424;28;20210;-68
2023/07/19 03:34:14;;;;;;;2.50;2.28;;;;;;;;;;5016990;28;20220;-68
2023/07/19 03:36:41;;;;;;;3.60;2.33;;;;;;;;;;5017993;28;20236;-68
2023/07/19 03:39:08;;;;;;;4.57;2.30;;;;;;;;;;5017237;28;20231;-68
2023/07/19 03:41:36;;;;;;;2.65;2.13;;;;;;;;;;5018765;28;20211;-68
2023/07/19 03:44:04;;;;;;;3.65;2.25;;;;;;;;;;5015520;28;20212;-68
2023/07/19 03:46:31;;;;;;;3.53;2.33;;;;;;;;;;5019523;28;20287;-68
2023/07/19 03:48:58;;;;;;;4.70;2.58;;;;;;;;;;5020879;28;20208;-68
2023/07/19 03:51:26;;;;;;;2.40;2.20;;;;;;;;;;5018859;28;20204;-68
2023/07/19 03:53:53;;;;;;;3.88;2.58;;;;;;;;;;5022387;28;20215;-68
2023/07/19 03:56:20;;;;;;;3.83;2.33;;;;;;;;;;5019296;28;20212;-68
2023/07/19 03:58:49;;;;;;;3.15;2.50;;;;;;;;;;5015557;28;20228;-68
2023/07/19 04:01:17;;;;;;;4.78;2.50;;;;;;;;;;5023837;28;20238;-68
2023/07/19 04:03:44;;;;;;;5.47;2.30;;;;;;;;;;5018568;28;20285;-68
2023/07/19 04:06:11;;;;;;;6.18;2.60;;;;;;;;;;5023302;28;20208;-68
2023/07/19 04:08:38;;;;;;;3.17;2.45;;;;;;;;;;5024142;28;20209;-68
2023/07/19 04:11:05;;;;;;;3.95;2.45;;;;;;;;;;5018592;28;20204;-68
2023/07/19 04:13:33;;;;;;;3.92;2.20;;;;;;;;;;5028848;28;20204;-68
2023/07/19 04:16:01;;;;;;;3.33;2.28;;;;;;;;;;5025158;28;20227;-68
2023/07/19 04:18:28;;;;;;;4.07;2.63;;;;;;;;;;5021097;28;20216;-68
2023/07/19 04:20:57;;;;;;;3.00;2.67;;;;;;;;;;5023057;28;20228;-68
2023/07/19 04:23:24;;;;;;;2.95;2.67;;;;;;;;;;5026812;28;20211;-68
2023/07/19 04:25:51;;;;;;;2.92;2.25;;;;;;;;;;5020292;28;20286;-68
2023/07/19 04:28:19;;;;;;;2.88;2.30;;;;;;;;;;5023238;28;20206;-68
2023/07/19 04:30:47;;;;;;;3.35;2.20;;;;;;;;;;5024181;28;20208;-68
2023/07/19 04:33:15;;;;;;;4.50;2.50;;;;;;;;;;5025912;28;20205;-68
2023/07/19 04:35:43;;;;;;;3.63;2.40;;;;;;;;;;5023080;28;20200;-68
2023/07/19 04:38:10;;;;;;;5.00;2.70;;;;;;;;;;5018587;28;20216;-68
2023/07/19 04:40:37;;;;;;;4.05;2.60;;;;;;;;;;5021346;28;20231;-68
2023/07/19 04:43:06;;;;;;;5.28;2.65;;;;;;;;;;5023603;28;20219;-68
2023/07/19 04:45:33;;;;;;;3.92;2.65;;;;;;;;;;5018032;28;20220;-68
2023/07/19 04:48:01;;;;;;;3.75;2.42;;;;;;;;;;5018657;28;20219;-68
2023/07/19 04:50:30;;;;;;;2.60;2.40;;;;;;;;;;5027982;28;20207;-68
2023/07/19 04:53:00;;;;;;;3.95;2.55;;;;;;;;;;5019738;28;20212;-68
2023/07/19 04:55:28;;;;;;;4.47;2.67;;;;;;;;;;5022009;28;20199;-67
2023/07/19 04:57:55;;;;;;;3.08;2.40;;;;;;;;;;5022198;28;20207;-68
2023/07/19 05:00:23;;;;;;;5.05;2.47;;;;;;;;;;5026218;28;20232;-68
2023/07/19 05:02:50;;;;;;;4.03;2.40;;;;;;;;;;5023984;28;20223;-68
2023/07/19 05:05:18;;;;;;;5.32;2.70;;;;;;;;;;5019424;28;20203;-68
2023/07/19 05:07:47;;;;;;;4.90;2.47;;;;;;;;;;5021465;28;20208;-68
2023/07/19 05:10:14;;;;;;;4.28;2.67;;;;;;;;;;5025657;28;20254;-68
2023/07/19 05:12:42;;;;;;;4.30;2.78;;;;;;;;;;5021599;28;20205;-67
2023/07/19 05:15:10;;;;;;;5.75;2.70;;;;;;;;;;5032747;28;20235;-67
2023/07/19 05:17:39;;;;;;;4.78;2.58;;;;;;;;;;5017662;28;20209;-68
2023/07/19 05:20:07;;;;;;;8.05;2.65;;;;;;;;;;5018666;28;20319;-67
2023/07/19 05:22:35;;;;;;;2.75;2.28;;;;;;;;;;5021961;28;20299;-67
2023/07/19 05:25:04;;;;;;;4.93;2.40;;;;;;;;;;5027434;28;20208;-67
2023/07/19 05:27:31;;;;;;;3.65;2.60;;;;;;;;;;5019674;28;20279;-68
2023/07/19 05:29:59;;;;;;;4.85;2.58;;;;;;;;;;5017091;28;20212;-67
2023/07/19 05:32:27;;;;;;;5.10;2.83;;;;;;;;;;5021716;28;20205;-67
2023/07/19 05:34:54;;;;;;;4.95;2.67;;;;;;;;;;5020734;28;20262;-67
2023/07/19 05:37:24;;;;;;;3.30;2.60;;;;;;;;;;5021410;28;20295;-67
2023/07/19 05:39:51;;;;;;;5.13;2.80;;;;;;;;;;5024030;28;20260;-67
2023/07/19 05:42:21;;;;;;;3.58;2.42;;;;;;;;;;5022944;28;20295;-67
2023/07/19 05:44:49;;;;;;;3.10;2.40;;;;;;;;;;5021402;28;20275;-67
2023/07/19 05:47:17;;;;;;;4.50;2.50;;;;;;;;;;5021705;28;20232;-67
2023/07/19 05:49:44;;;;;;;4.13;2.50;;;;;;;;;;5034266;28;20263;-67
2023/07/19 05:52:12;;;;;;;3.00;2.33;;;;;;;;;;5011508;28;20205;-66
2023/07/19 05:54:39;;;;;;;6.22;2.80;;;;;;;;;;5021454;28;20201;-67
2023/07/19 05:57:06;;;;;;;3.50;2.67;;;;;;;;;;5019672;28;20239;-67
2023/07/19 05:59:35;;;;;;;5.60;2.67;;;;;;;;;;5024121;28;20336;-67
2023/07/19 06:02:09;;;;;;;4.68;2.42;;;;;;;;;;5010643;28;20208;-67
2023/07/19 06:04:36;;;;;;;3.13;2.40;;;;;;;;;;5023731;28;20200;-67
2023/07/19 06:07:04;;;;;;;5.63;2.30;;;;;;;;;;5026275;28;20205;-67
2023/07/19 06:09:31;;;;;;;2.50;2.30;;;;;;;;;;5025420;28;20200;-67
2023/07/19 06:11:59;;;;;;;8.88;2.50;;;;;;;;;;5027383;28;20211;-67
2023/07/19 06:14:27;;;;;;;4.50;2.38;;;;;;;;;;5027319;28;20203;-67
2023/07/19 06:16:56;;;;;;;4.88;2.80;;;;;;;;;;5032603;28;20205;-67
2023/07/19 06:19:24;;;;;;;5.63;2.50;;;;;;;;;;5025753;28;20216;-67
2023/07/19 06:21:51;;;;;;;2.63;2.40;;;;;;;;;;5025962;28;20200;-67
2023/07/19 06:24:19;;;;;;;3.83;2.60;;;;;;;;;;5025235;28;20290;-67
2023/07/19 06:26:46;;;;;;;2.50;2.30;;;;;;;;;;5027970;28;20271;-67
2023/07/19 06:29:14;;;;;;;3.83;2.42;;;;;;;;;;5018865;28;20200;-67
2023/07/19 06:31:42;;;;;;;3.35;2.40;;;;;;;;;;5016854;28;20228;-67
2023/07/19 06:34:10;;;;;;;4.45;2.53;;;;;;;;;;5018539;28;20220;-67
2023/07/19 06:36:40;;;;;;;4.75;2.70;;;;;;;;;;5011365;28;20221;-67
2023/07/19 06:39:07;;;;;;;3.35;2.50;;;;;;;;;;5023882;28;20211;-67
2023/07/19 06:41:35;;;;;;;4.03;2.50;;;;;;;;;;5027241;28;20219;-67
2023/07/19 06:44:02;;;;;;;4.05;2.30;;;;;;;;;;5019292;28;20218;-67
2023/07/19 06:46:31;;;;;;;3.15;2.45;;;;;;;;;;5021203;28;20205;-67
2023/07/19 06:48:58;;;;;;;7.80;2.83;;;;;;;;;;5017812;28;20216;-67
2023/07/19 06:51:37;;;;;;;3.85;2.63;;;;;;;;;;5017635;28;20223;-67
2023/07/19 06:54:04;;;;;;;4.05;2.60;;;;;;;;;;5019454;28;20209;-67
2023/07/19 06:56:32;;;;;;;2.78;2.15;;;;;;;;;;5019936;28;20213;-67
2023/07/19 06:58:59;;;;;;;3.58;2.70;;;;;;;;;;5023074;28;20205;-67
2023/07/19 07:01:26;;;;;;;3.05;2.50;;;;;;;;;;5014741;28;20266;-67
2023/07/19 07:03:54;;;;;;;3.83;2.58;;;;;;;;;;5015137;28;20204;-67
2023/07/19 07:06:21;;;;;;;4.60;2.60;;;;;;;;;;5021320;28;20258;-67
2023/07/19 07:08:50;;;;;;;2.83;2.42;;;;;;;;;;5012562;28;20203;-68
2023/07/19 07:11:17;;;;;;;4.72;2.00;;;;;;;;;;5016836;28;20207;-67
2023/07/19 07:13:44;;;;;;;4.93;2.55;;;;;;;;;;5017648;28;20208;-67
2023/07/19 07:16:12;;;;;;;3.33;2.47;;;;;;;;;;5021263;28;20235;-67
2023/07/19 07:18:39;;;;;;;3.85;2.60;;;;;;;;;;5017256;28;20271;-67
2023/07/19 07:24:12;;;;;;;4.90;2.42;;;;;;;;;;5019382;28;20218;-67
2023/07/19 07:26:39;;;;;;;5.35;2.60;;;;;;;;;;5019995;28;20205;-67
2023/07/19 07:29:41;;;;;;;6.07;2.50;;;;;;;;;;5018980;28;20212;-67
2023/07/19 07:32:09;;;;;;;3.38;2.30;;;;;;;;;;5023272;28;20215;-67
2023/07/19 07:37:41;;;;;;;3.58;2.30;;;;;;;;;;5010266;28;20183;-67
2023/07/19 07:40:10;;;;;;;2.78;2.42;;;;;;;;;;5007152;28;20231;-68
2023/07/19 07:42:38;;;;;;;4.03;2.30;;;;;;;;;;5006823;28;20212;-67
2023/07/19 07:45:06;;;;;;;6.60;2.60;;;;;;;;;;5017010;28;20208;-67
2023/07/19 07:50:36;;;;;;;4.85;2.13;;;;;;;;;;5021027;28;20194;-67
2023/07/19 07:53:03;;;;;;;6.68;2.20;;;;;;;;;;5008942;28;20212;-67
2023/07/19 08:01:42;;;;;;;6.90;2.30;;;;;;;;;;5022146;28;20289;-67
2023/07/19 08:07:14;;;;;;;7.53;2.20;;;;;;;;;;5023285;28;20240;-68
2023/07/19 08:09:42;;;;;;;6.05;2.40;;;;;;;;;;5028938;28;20207;-67
2023/07/19 08:15:13;;;;;;;4.90;2.00;;;;;;;;;;5021596;28;20242;-67
2023/07/19 08:20:45;;;;;;;4.75;2.45;;;;;;;;;;5011059;28;20230;-67
2023/07/19 08:23:12;;;;;;;4.10;2.45;;;;;;;;;;5016382;28;20223;-67
2023/07/19 08:26:10;;;;;;;2.88;2.30;;;;;;;;;;5021618;28;20262;-67
2023/07/19 08:28:37;;;;;;;4.30;2.33;;;;;;;;;;5020277;28;20204;-67
2023/07/19 08:34:08;;;;;;;2.65;1.98;;;;;;;;;;5019930;28;20222;-67
2023/07/19 08:36:36;;;;;;;4.47;2.10;;;;;;;;;;5011131;28;20205;-66
2023/07/19 08:39:04;;;;;;;3.63;2.03;;;;;;;;;;5010097;28;20205;-67
2023/07/19 08:41:32;;;;;;;3.15;2.03;;;;;;;;;;5024030;28;20221;-67
2023/07/19 08:47:05;;;;;;;2.25;2.03;;;;;;;;;;5016743;28;20196;-69
2023/07/19 08:49:33;;;;;;;5.85;2.10;;;;;;;;;;5027627;28;20209;-68
2023/07/19 08:52:03;;;;;;;3.17;2.10;;;;;;;;;;5018201;28;20212;-67
2023/07/19 08:54:30;;;;;;;2.90;1.85;;;;;;;;;;5022732;28;20209;-67
2023/07/19 08:56:57;;;;;;;4.60;2.10;;;;;;;;;;5020790;28;20209;-67
2023/07/19 08:59:25;;;;;;;4.88;2.00;;;;;;;;;;5025010;28;20208;-67
2023/07/19 09:01:52;;;;;;;3.58;2.20;;;;;;;;;;5025818;28;20256;-67
2023/07/19 09:04:20;;;;;;;4.40;2.10;;;;;;;;;;5024002;28;20205;-67
2023/07/19 09:06:50;;;;;;;3.97;1.83;;;;;;;;;;5021330;28;20294;-67
2023/07/19 09:09:19;;;;;;;3.85;2.10;;;;;;;;;;5023862;28;20209;-67
2023/07/19 09:11:48;;;;;;;3.72;1.88;;;;;;;;;;5030232;28;20207;-66
2023/07/19 09:14:16;;;;;;;5.07;2.20;;;;;;;;;;5020047;28;20206;-68
2023/07/19 09:16:43;;;;;;;4.10;2.17;;;;;;;;;;5026905;28;20297;-68
2023/07/19 09:19:11;;;;;;;4.38;2.33;;;;;;;;;;5025438;28;20199;-66
2023/07/19 09:21:40;;;;;;;9.40;2.00;;;;;;;;;;5023816;28;20228;-67
2023/07/19 09:24:08;;;;;;;3.05;2.15;;;;;;;;;;5025376;28;20201;-67
2023/07/19 09:26:46;;;;;;;4.78;1.75;;;;;;;;;;5012335;28;20230;-67
2023/07/19 09:29:13;;;;;;;2.50;2.05;;;;;;;;;;5014159;28;20200;-67
2023/07/19 09:31:56;;;;;;;6.60;2.47;;;;;;;;;;5013616;28;20200;-67
2023/07/19 09:34:24;;;;;;;4.43;1.90;;;;;;;;;;5019608;28;20208;-67
2023/07/19 09:36:52;;;;;;;2.30;2.10;;;;;;;;;;5035026;28;20234;-67
2023/07/19 09:39:20;;;;;;;5.20;2.20;;;;;;;;;;5024325;28;20270;-66
2023/07/19 09:41:48;;;;;;;8.43;2.35;;;;;;;;;;5020878;28;20227;-66
2023/07/19 09:44:16;;;;;;;3.60;2.25;;;;;;;;;;5011354;28;20204;-66
2023/07/19 09:46:45;;;;;;;5.20;2.90;;;;;;;;;;5016913;28;20272;-66
2023/07/19 09:49:13;;;;;;;2.80;2.03;;;;;;;;;;5020890;28;20216;-67
2023/07/19 09:51:41;;;;;;;4.20;2.30;;;;;;;;;;5024819;28;20278;-67
2023/07/19 09:54:09;;;;;;;4.95;1.92;;;;;;;;;;5028296;28;20207;-73
2023/07/19 09:56:38;;;;;;;8.50;2.22;;;;;;;;;;5019425;28;20369;-74
2023/07/19 09:59:09;;;;;;;6.95;2.20;;;;;;;;;;5014986;28;20212;-75
2023/07/19 10:01:37;;;;;;;2.83;2.20;;;;;;;;;;5014548;28;20212;-74
2023/07/19 10:04:22;;;;;;;3.67;2.45;;;;;;;;;;5026637;28;20213;-74
2023/07/19 10:06:49;;;;;;;5.00;2.10;;;;;;;;;;5016162;28;20239;-74
2023/07/19 10:09:40;;;;;;;5.13;2.25;;;;;;;;;;5020016;28;20204;-74
2023/07/19 10:12:09;;;;;;;4.40;2.25;;;;;;;;;;5018702;28;20235;-72
2023/07/19 10:14:38;;;;;;;3.65;2.10;;;;;;;;;;5021369;28;20239;-73
2023/07/19 10:17:07;;;;;;;8.98;2.47;;;;;;;;;;5021541;28;20199;-74
2023/07/19 10:19:36;;;;;;;5.68;2.20;;;;;;;;;;5023448;28;20219;-74
2023/07/19 10:22:04;;;;;;;4.63;2.05;;;;;;;;;;5027769;28;20228;-73
2023/07/19 10:24:32;;;;;;;5.25;2.60;;;;;;;;;;5022142;28;20208;-74
2023/07/19 10:27:03;;;;;;;5.80;2.28;;;;;;;;;;5023153;28;20282;-74
2023/07/19 10:29:41;;;;;;;4.18;2.22;;;;;;;;;;5024710;28;20205;-73
2023/07/19 10:32:09;;;;;;;6.45;2.38;;;;;;;;;;5028553;28;20211;-73
2023/07/19 10:34:36;;;;;;;5.72;2.10;;;;;;;;;;5025082;28;20204;-74
2023/07/19 10:37:04;;;;;;;3.25;1.90;;;;;;;;;;5020226;28;20204;-73
2023/07/19 10:39:31;;;;;;;7.32;2.28;;;;;;;;;;5020356;28;20200;-74
2023/07/19 10:41:59;;;;;;;5.38;2.00;;;;;;;;;;5027470;28;20228;-74
2023/07/19 10:44:27;;;;;;;4.47;2.00;;;;;;;;;;5027231;28;20211;-74
2023/07/19 10:46:56;;;;;;;4.20;1.92;;;;;;;;;;5020764;28;20208;-74
2023/07/19 10:49:24;;;;;;;2.22;1.80;;;;;;;;;;5025697;28;20212;-74
2023/07/19 10:51:55;;;;;;;2.28;1.90;;;;;;;;;;5022991;28;20196;-73
2023/07/19 10:54:22;;;;;;;3.53;1.90;;;;;;;;;;5021729;28;20200;-74
2023/07/19 10:56:50;;;;;;;5.07;2.35;;;;;;;;;;5023040;28;20208;-74
2023/07/19 10:59:18;;;;;;;6.72;2.13;;;;;;;;;;5022874;28;20203;-73
2023/07/19 11:01:46;;;;;;;3.35;1.63;;;;;;;;;;5022959;28;20315;-74
2023/07/19 11:04:14;;;;;;;2.97;2.10;;;;;;;;;;5018500;28;20211;-74
2023/07/19 11:06:54;;;;;;;3.25;1.80;;;;;;;;;;5016643;28;20208;-75
2023/07/19 11:09:23;;;;;;;5.93;2.05;;;;;;;;;;5026799;28;20258;-73
2023/07/19 11:11:51;;;;;;;5.03;2.17;;;;;;;;;;5013852;28;20205;-74
2023/07/19 11:14:31;;;;;;;4.57;1.92;;;;;;;;;;5013621;28;20212;-74
2023/07/19 11:16:58;;;;;;;4.60;2.00;;;;;;;;;;5022277;28;20211;-74
2023/07/19 11:19:34;;;;;;;2.20;1.85;;;;;;;;;;5033164;28;20200;-72
2023/07/19 11:22:02;;;;;;;5.35;2.38;;;;;;;;;;5020795;28;20279;-74
2023/07/19 11:24:36;;;;;;;4.78;2.10;;;;;;;;;;5029099;28;20208;-74
2023/07/19 11:27:03;;;;;;;6.38;2.10;;;;;;;;;;5018008;28;20295;-73
2023/07/19 11:29:31;;;;;;;2.63;2.00;;;;;;;;;;5017846;28;20269;-73
2023/07/19 11:32:13;;;;;;;4.35;2.00;;;;;;;;;;5020575;28;20212;-74
2023/07/19 11:34:47;;;;;;;5.28;2.10;;;;;;;;;;5014095;28;20310;-74
2023/07/19 11:37:17;;;;;;;6.25;2.30;;;;;;;;;;5024014;28;20208;-74
2023/07/19 11:39:45;;;;;;;4.35;2.00;;;;;;;;;;5015912;28;20212;-71
2023/07/19 11:42:13;;;;;;;8.02;2.10;;;;;;;;;;5034056;28;20227;-72
2023/07/19 11:44:44;;;;;;;6.85;2.20;;;;;;;;;;5024409;28;20208;-73
2023/07/19 11:47:11;;;;;;;8.65;2.60;;;;;;;;;;5022868;28;20218;-72
2023/07/19 11:49:38;;;;;;;4.75;2.10;;;;;;;;;;5025749;28;20291;-70
2023/07/19 11:52:08;;;;;;;4.00;2.05;;;;;;;;;;5020125;28;20215;-73
2023/07/19 11:54:35;;;;;;;3.03;2.00;;;;;;;;;;5019171;28;20204;-66
2023/07/19 11:57:02;;;;;;;4.53;2.10;;;;;;;;;;5019744;28;20200;-65
2023/07/19 11:59:29;;;;;;;6.75;2.33;;;;;;;;;;5025870;28;20197;-66
2023/07/19 12:01:57;;;;;;;3.63;2.33;;;;;;;;;;5020039;28;20215;-66
2023/07/19 12:04:24;;;;;;;3.40;2.35;;;;;;;;;;5023945;28;20204;-66
2023/07/19 12:06:51;;;;;;;2.97;2.13;;;;;;;;;;5022382;28;20207;-66
2023/07/19 12:09:19;;;;;;;5.75;1.92;;;;;;;;;;5017619;28;20211;-67
2023/07/19 12:11:47;;;;;;;4.22;2.05;;;;;;;;;;5022561;28;20218;-65
2023/07/19 12:14:16;;;;;;;4.13;2.30;;;;;;;;;;5020749;28;20206;-66
2023/07/19 12:16:43;;;;;;;6.60;2.33;;;;;;;;;;5020573;28;20236;-66
2023/07/19 12:19:11;;;;;;;6.70;2.67;;;;;;;;;;5021596;28;20216;-66
2023/07/19 12:21:39;;;;;;;8.50;2.53;;;;;;;;;;5017142;28;20224;-65
2023/07/19 12:24:06;;;;;;;5.53;2.45;;;;;;;;;;5019269;28;20212;-66
2023/07/19 12:26:36;;;;;;;8.27;2.30;;;;;;;;;;5022802;28;20208;-65
2023/07/19 12:29:03;;;;;;;7.13;2.42;;;;;;;;;;5030007;28;20226;-66
2023/07/19 12:31:30;;;;;;;6.35;2.65;;;;;;;;;;5022989;28;20209;-65
2023/07/19 12:33:57;;;;;;;5.72;2.05;;;;;;;;;;5029739;28;20206;-65
2023/07/19 12:36:25;;;;;;;2.65;2.00;;;;;;;;;;5020301;28;20244;-66
2023/07/19 12:38:54;;;;;;;6.38;2.22;;;;;;;;;;5019227;28;20215;-65
2023/07/19 12:41:21;;;;;;;2.20;2.00;;;;;;;;;;5025434;28;20224;-65
2023/07/19 12:43:50;;;;;;;7.80;2.38;;;;;;;;;;5029435;28;20207;-65
2023/07/19 12:46:18;;;;;;;2.72;2.05;;;;;;;;;;5019789;28;20276;-65
2023/07/19 12:48:48;;;;;;;4.85;2.00;;;;;;;;;;5018775;28;20209;-66
2023/07/19 12:51:15;;;;;;;4.32;2.20;;;;;;;;;;5022323;28;20211;-65
2023/07/19 12:53:42;;;;;;;4.32;1.88;;;;;;;;;;5021730;28;20220;-65
2023/07/19 12:56:09;;;;;;;5.10;2.10;;;;;;;;;;5024765;28;20212;-65
2023/07/19 12:58:36;;;;;;;5.28;1.90;;;;;;;;;;5021163;28;20275;-65
2023/07/19 13:01:05;;;;;;;6.35;2.00;;;;;;;;;;5023602;28;20204;-67
2023/07/19 13:03:32;;;;;;;3.47;1.98;;;;;;;;;;5021653;28;20204;-66
2023/07/19 13:05:59;;;;;;;2.72;2.10;;;;;;;;;;5021558;28;20212;-66
2023/07/19 13:08:27;;;;;;;2.75;1.83;;;;;;;;;;5024048;28;20221;-65
2023/07/19 13:10:54;;;;;;;3.70;1.88;;;;;;;;;;5021264;28;20200;-65
2023/07/19 13:13:21;;;;;;;4.13;1.95;;;;;;;;;;5022209;28;20200;-67
2023/07/19 13:15:52;;;;;;;2.70;1.58;;;;;;;;;;5018653;28;20244;-65
2023/07/19 13:18:20;;;;;;;4.30;1.92;;;;;;;;;;5020344;28;20201;-66
2023/07/19 13:20:47;;;;;;;4.88;1.98;;;;;;;;;;5016607;28;20205;-65
2023/07/19 13:23:16;;;;;;;9.27;2.70;;;;;;;;;;5015747;28;20227;-65
2023/07/19 13:25:44;;;;;;;2.78;1.67;;;;;;;;;;5022151;28;20200;-66
2023/07/19 13:28:11;;;;;;;3.70;1.73;;;;;;;;;;5021580;28;20196;-66
2023/07/19 13:30:39;;;;;;;2.72;1.70;;;;;;;;;;5021923;28;20208;-65
2023/07/19 13:33:06;;;;;;;2.00;1.80;;;;;;;;;;5016011;28;20200;-67
2023/07/19 13:35:34;;;;;;;3.70;1.70;;;;;;;;;;5010802;28;20208;-68
2023/07/19 13:38:01;;;;;;;3.80;1.90;;;;;;;;;;5014770;28;20213;-67
2023/07/19 13:40:29;;;;;;;2.13;1.80;;;;;;;;;;5017619;28;20331;-69
2023/07/19 13:42:56;;;;;;;2.22;1.60;;;;;;;;;;5021675;28;20220;-67
2023/07/19 13:45:23;;;;;;;1.67;1.40;;;;;;;;;;5021188;28;20205;-69
2023/07/19 13:47:50;;;;;;;2.22;1.50;;;;;;;;;;5014909;28;20227;-68
2023/07/19 13:50:17;;;;;;;5.97;1.48;;;;;;;;;;5022436;28;20205;-67
2023/07/19 13:52:46;;;;;;;2.67;1.60;;;;;;;;;;5020533;28;20231;-68
2023/07/19 13:55:13;;;;;;;3.08;1.70;;;;;;;;;;5014645;28;20299;-67
2023/07/19 13:57:40;;;;;;;2.95;1.60;;;;;;;;;;5020191;28;20232;-68
2023/07/19 14:00:08;;;;;;;2.88;1.70;;;;;;;;;;5014428;28;20219;-67
2023/07/19 14:02:36;;;;;;;5.78;1.23;;;;;;;;;;5022018;28;20278;-70
2023/07/19 14:05:03;;;;;;;3.03;1.50;;;;;;;;;;5019916;28;20212;-69
2023/07/19 14:07:30;;;;;;;1.85;1.40;;;;;;;;;;5019530;28;20207;-69
2023/07/19 14:09:59;;;;;;;1.90;1.70;;;;;;;;;;5029861;28;20208;-66
2023/07/19 14:12:27;;;;;;;2.00;1.30;;;;;;;;;;5025410;28;20270;-67
2023/07/19 14:14:55;;;;;;;2.80;1.50;;;;;;;;;;5020638;28;20255;-67
2023/07/19 14:17:25;;;;;;;1.45;1.33;;;;;;;;;;5021493;28;20411;-66
2023/07/19 14:19:52;;;;;;;2.55;1.52;;;;;;;;;;5030340;28;20208;-67
2023/07/19 14:22:19;;;;;;;2.67;1.55;;;;;;;;;;5019238;28;20239;-65
2023/07/19 14:24:46;;;;;;;1.90;1.40;;;;;;;;;;5027727;28;20220;-66
2023/07/19 14:27:15;;;;;;;1.80;1.60;;;;;;;;;;5017718;28;20212;-66
2023/07/19 14:29:42;;;;;;;2.10;1.60;;;;;;;;;;5023554;28;20204;-67
2023/07/19 14:32:10;;;;;;;2.97;1.50;;;;;;;;;;5027606;28;20207;-67
2023/07/19 14:34:37;;;;;;;3.50;1.73;;;;;;;;;;5020814;28;20236;-68
2023/07/19 14:37:04;;;;;;;3.42;1.35;;;;;;;;;;5019416;28;20215;-68
2023/07/19 14:39:31;;;;;;;2.83;1.70;;;;;;;;;;5011589;28;20204;-70
2023/07/19 14:41:59;;;;;;;2.00;1.40;;;;;;;;;;5016930;28;20243;-67
2023/07/19 14:44:27;;;;;;;4.55;1.83;;;;;;;;;;5022586;28;20211;-70
2023/07/19 14:46:56;;;;;;;5.75;1.60;;;;;;;;;;5026326;28;20317;-69
2023/07/19 14:49:24;;;;;;;4.22;1.58;;;;;;;;;;5021268;28;20212;-68
2023/07/19 14:51:51;;;;;;;2.45;1.40;;;;;;;;;;5019758;28;20212;-69
2023/07/19 14:54:18;;;;;;;7.70;1.85;;;;;;;;;;5023064;28;20215;-66
2023/07/19 14:56:46;;;;;;;2.25;1.58;;;;;;;;;;5027036;28;20199;-65
2023/07/19 14:59:13;;;;;;;4.72;1.75;;;;;;;;;;5022415;28;20204;-65
2023/07/19 15:01:41;;;;;;;5.45;1.75;;;;;;;;;;5020984;28;20216;-69
2023/07/19 15:04:08;;;;;;;1.60;1.30;;;;;;;;;;5016959;28;20220;-65
2023/07/19 15:06:35;;;;;;;2.17;1.60;;;;;;;;;;5019870;28;20224;-72
2023/07/19 15:09:03;;;;;;;2.35;1.40;;;;;;;;;;5021159;28;20204;-68
2023/07/19 15:11:30;;;;;;;2.38;1.25;;;;;;;;;;5023594;28;20205;-72
2023/07/19 15:13:57;;;;;;;2.72;1.50;;;;;;;;;;5017449;28;20201;-69
2023/07/19 15:16:24;;;;;;;2.25;1.30;;;;;;;;;;5017561;28;20280;-70
2023/07/19 15:18:53;;;;;;;2.03;1.40;;;;;;;;;;5023598;28;20208;-70